createdAt,value
2023-01-13T00:09:46.392Z,3.20
2023-01-13T00:19:46.429Z,9.40
2023-01-13T00:29:46.421Z,13.00
2023-01-13T00:39:46.414Z,13.50
2023-01-13T00:49:46.477Z,13.90
2023-01-13T00:59:47.997Z,12.90
2023-01-13T01:09:46.423Z,11.10
2023-01-13T01:19:46.456Z,12.20
2023-01-13T01:29:46.424Z,13.00
2023-01-13T01:39:46.422Z,13.10
2023-01-13T01:49:46.568Z,13.30
2023-01-13T01:59:46.496Z,12.10
2023-01-13T02:09:46.432Z,13.50
2023-01-13T02:19:46.473Z,10.60
2023-01-13T02:29:46.429Z,7.50
2023-01-13T02:39:46.443Z,5.60
2023-01-13T02:49:46.453Z,2.40
2023-01-13T02:59:46.604Z,4.80
2023-01-13T03:09:46.459Z,11.70
2023-01-13T03:19:46.463Z,12.70
2023-01-13T03:29:46.480Z,12.30
2023-01-13T03:39:46.504Z,14.10
2023-01-13T03:49:46.643Z,13.90
2023-01-13T03:59:46.465Z,13.40
2023-01-13T04:09:46.466Z,14.70
2023-01-13T04:19:46.530Z,15.00
2023-01-13T04:29:46.709Z,14.60
2023-01-13T04:39:46.796Z,14.00
2023-01-13T04:49:46.535Z,14.00
2023-01-13T04:59:46.561Z,12.10
2023-01-13T05:09:46.595Z,11.70
2023-01-13T05:19:46.663Z,9.40
2023-01-13T05:29:46.592Z,10.00
2023-01-13T05:39:46.550Z,7.90
2023-01-13T05:49:46.552Z,8.80
2023-01-13T05:59:46.617Z,9.40
2023-01-13T06:09:46.715Z,11.20
2023-01-13T06:19:46.540Z,9.60
2023-01-13T06:29:46.556Z,8.50
2023-01-13T06:39:46.588Z,8.20
2023-01-13T06:49:46.553Z,5.70
2023-01-13T06:59:46.543Z,3.30
2023-01-13T07:09:46.587Z,2.70
2023-01-13T07:19:46.559Z,1.40
2023-01-13T07:29:46.553Z,1.20
2023-01-13T07:39:46.647Z,1.70
2023-01-13T07:49:46.571Z,2.00
2023-01-13T07:59:46.577Z,1.20
2023-01-13T08:09:46.591Z,3.30
2023-01-13T08:19:46.592Z,1.40
2023-01-13T08:29:46.799Z,1.50
2023-01-13T08:39:46.622Z,1.20
2023-01-13T08:49:46.600Z,1.20
2023-01-13T08:59:46.694Z,2.30
2023-01-13T09:09:46.765Z,2.30
2023-01-13T09:19:46.621Z,1.30
2023-01-13T09:29:46.723Z,2.20
2023-01-13T09:39:46.792Z,1.90
2023-01-13T09:49:46.661Z,2.00
2023-01-13T09:59:46.626Z,4.80
2023-01-13T10:09:46.662Z,3.00
2023-01-13T10:19:46.651Z,1.80
2023-01-13T10:29:46.631Z,1.10
2023-01-13T10:39:46.632Z,1.60
2023-01-13T10:49:46.694Z,2.30
2023-01-13T10:59:46.778Z,2.40
2023-01-13T11:09:46.823Z,3.80
2023-01-13T11:19:46.669Z,2.40
2023-01-13T11:29:46.679Z,2.20
2023-01-13T11:39:46.670Z,1.80
2023-01-13T11:49:46.636Z,2.30
2023-01-13T11:59:46.726Z,2.20
2023-01-13T12:09:46.681Z,2.00
2023-01-13T12:19:46.643Z,1.80
2023-01-13T12:29:46.666Z,1.70
2023-01-13T12:39:46.664Z,1.50
2023-01-13T12:49:46.694Z,1.50
2023-01-13T12:59:46.670Z,1.50
2023-01-13T13:09:46.783Z,1.90
2023-01-13T13:19:46.778Z,1.90
2023-01-13T13:29:46.682Z,1.80
2023-01-13T13:39:46.715Z,2.00
2023-01-13T13:49:46.761Z,2.70
2023-01-13T13:59:46.737Z,1.60
2023-01-13T14:09:46.764Z,3.40
2023-01-13T14:19:46.656Z,1.10
2023-01-13T14:29:46.669Z,1.60
2023-01-13T14:39:46.679Z,1.30
2023-01-13T14:49:46.752Z,2.90
2023-01-13T14:59:46.666Z,5.90
2023-01-13T15:09:46.823Z,10.40
2023-01-13T15:19:46.637Z,11.90
2023-01-13T15:29:46.651Z,12.10
2023-01-13T15:39:46.767Z,12.40
2023-01-13T15:49:46.720Z,12.90
2023-01-13T15:59:46.653Z,11.50
2023-01-13T16:09:46.654Z,17.90
2023-01-13T16:19:46.757Z,13.40
2023-01-13T16:29:46.752Z,13.00
2023-01-13T16:49:46.783Z,13.90
2023-01-13T16:59:46.756Z,14.70
2023-01-13T17:09:46.862Z,14.90
2023-01-13T17:32:40.601Z,15.50
2023-01-13T17:42:40.575Z,15.60
2023-01-13T17:52:40.597Z,16.50
2023-01-13T18:02:40.640Z,13.70
2023-01-13T18:12:40.592Z,15.20
2023-01-13T18:22:40.743Z,17.80
2023-01-13T18:32:40.877Z,18.20
2023-01-13T18:42:40.777Z,19.50
2023-01-13T18:52:40.721Z,19.20
2023-01-13T19:02:40.708Z,18.50
2023-01-13T19:12:40.690Z,18.20
2023-01-13T19:22:40.649Z,17.10
2023-01-13T19:32:40.629Z,15.40
2023-01-13T19:42:40.600Z,14.80
2023-01-13T19:52:41.037Z,15.80
2023-01-13T20:02:40.854Z,14.20
2023-01-13T20:12:40.687Z,16.80
2023-01-13T20:22:40.705Z,16.70
2023-01-13T20:32:40.658Z,19.10
2023-01-13T20:42:40.697Z,19.60
2023-01-13T20:52:40.672Z,19.20
2023-01-13T21:02:40.828Z,21.00
2023-01-13T21:12:40.709Z,24.70
2023-01-13T21:22:40.722Z,20.60
2023-01-13T21:42:40.683Z,18.20
2023-01-13T21:52:40.703Z,18.70
2023-01-13T22:02:40.865Z,18.10
2023-01-13T22:12:40.691Z,19.00
2023-01-13T22:22:40.945Z,19.00
2023-01-13T22:32:40.690Z,17.60
2023-01-13T22:42:40.702Z,17.60
2023-01-13T22:52:40.696Z,18.10
2023-01-13T23:02:40.670Z,18.70
2023-01-13T23:12:40.691Z,19.20
2023-01-13T23:22:40.706Z,20.50
2023-01-13T23:32:40.712Z,21.40
2023-01-13T23:42:40.791Z,18.30
2023-01-13T23:52:40.722Z,18.40
